createdAt,value
2022-08-25T07:09:39.148Z,220.10
2022-08-25T08:00:53.637Z,228.17
2022-08-25T13:19:45.122Z,176.00
2022-08-25T13:22:17.720Z,167.90
2022-08-25T13:24:47.461Z,159.65
2022-08-25T13:27:26.566Z,231.38
2022-08-25T13:29:57.310Z,253.35
2022-08-25T13:32:56.160Z,215.60
2022-08-25T13:35:30.803Z,215.20
2022-08-25T13:38:13.143Z,221.40
2022-08-25T13:56:04.257Z,92.20
2022-08-25T14:11:35.867Z,95.60
2022-08-25T14:14:09.035Z,99.70
2022-08-25T14:16:43.375Z,87.63
2022-08-25T14:24:39.164Z,100.72
2022-08-25T15:53:15.499Z,109.63
2022-08-25T15:55:43.540Z,100.25
2022-08-25T16:08:09.377Z,120.32
2022-08-25T16:10:49.743Z,125.10
2022-08-25T16:13:17.688Z,117.27
2022-08-25T16:15:54.169Z,116.18
2022-08-25T16:18:23.042Z,40.78
2022-08-25T16:20:51.760Z,79.78
2022-08-25T16:23:21.365Z,99.60
2022-08-25T16:25:51.865Z,107.00
2022-08-25T16:28:24.392Z,101.97
2022-08-25T16:30:54.925Z,97.53
2022-08-25T16:33:44.515Z,95.60
2022-08-25T17:14:40.829Z,122.03
2022-08-25T17:17:36.107Z,112.25
2022-08-25T17:20:51.281Z,119.97
2022-08-25T17:23:39.799Z,120.93
2022-08-25T17:26:56.022Z,120.88
2022-08-25T17:29:48.805Z,125.03
2022-08-25T17:32:37.132Z,122.57
2022-08-25T17:35:25.691Z,114.35
2022-08-25T17:38:14.402Z,103.00
2022-08-25T17:41:06.732Z,106.43
2022-08-25T17:43:55.061Z,100.77
2022-08-25T17:46:25.618Z,96.78
2022-08-25T17:48:56.390Z,120.70
2022-08-25T17:51:24.805Z,119.22
2022-08-25T17:53:53.866Z,117.05
2022-08-25T17:59:19.716Z,77.28
2022-08-25T18:02:06.917Z,75.78
2022-08-25T18:04:55.306Z,78.80
2022-08-25T18:07:46.465Z,85.82
2022-08-25T18:10:37.074Z,86.07
2022-08-25T18:13:26.709Z,109.50
2022-08-25T18:16:16.963Z,110.43
2022-08-25T18:19:09.697Z,116.90
2022-08-25T18:21:58.044Z,116.15
2022-08-25T18:24:45.985Z,117.20
2022-08-25T18:27:40.206Z,94.03
2022-08-25T18:30:52.825Z,88.03
2022-08-25T18:33:45.115Z,89.50
2022-08-25T20:01:52.892Z,125.60
2022-08-25T20:04:49.587Z,127.60
2022-08-25T20:07:19.673Z,120.63
2022-08-25T20:09:49.396Z,124.00
2022-08-25T20:12:20.303Z,130.10
2022-08-25T20:14:49.994Z,127.38
